Time;durP1;ratioP1;P1;durP2;ratioP2;P2;SDS_P1;SDS_P2;PMS_P1;PMS_P2;Temp;Humidity;BMP_temperature;BMP_pressure;BME280_temperature;BME280_humidity;BME280_pressure;Samples;Min_cycle;Max_cycle;Signal;HPM_P1;HPM_P2
2021/05/04 00:01:43;;;;;;;9.47;2.80;;;12.70;99.90;;;;;;4986554;28;20193;-77
2021/05/04 00:04:09;;;;;;;10.10;4.00;;;12.60;99.90;;;;;;5003418;28;20207;-78
2021/05/04 00:06:35;;;;;;;8.37;2.90;;;12.50;99.90;;;;;;4988798;28;20180;-77
2021/05/04 00:09:00;;;;;;;8.27;2.30;;;12.30;99.90;;;;;;4987111;28;20196;-79
2021/05/04 00:11:26;;;;;;;7.77;2.63;;;12.20;99.90;;;;;;4972594;28;20192;-79
2021/05/04 00:13:52;;;;;;;8.30;2.90;;;12.10;99.90;;;;;;4971911;28;20334;-79
2021/05/04 00:16:18;;;;;;;7.40;2.70;;;12.10;99.90;;;;;;4975175;28;20186;-79
2021/05/04 00:18:43;;;;;;;11.43;3.07;;;12.00;99.90;;;;;;4993279;28;20189;-78
2021/05/04 00:21:09;;;;;;;16.57;3.83;;;12.00;99.90;;;;;;4975700;28;20561;-79
2021/05/04 00:23:34;;;;;;;8.33;2.73;;;12.00;99.90;;;;;;4991143;28;20267;-78
2021/05/04 00:26:00;;;;;;;7.47;2.50;;;11.80;99.90;;;;;;4975937;28;20185;-78
2021/05/04 00:28:26;;;;;;;7.73;2.90;;;11.70;99.90;;;;;;4975500;28;20217;-78
2021/05/04 00:30:52;;;;;;;7.77;3.30;;;11.50;99.90;;;;;;4975445;28;20698;-78
2021/05/04 00:33:18;;;;;;;8.70;3.17;;;11.40;99.90;;;;;;5006638;28;20690;-78
2021/05/04 00:35:44;;;;;;;7.67;2.60;;;11.30;99.90;;;;;;5014001;28;20235;-79
2021/05/04 00:38:09;;;;;;;8.40;2.90;;;11.20;99.90;;;;;;4990028;28;20610;-78
2021/05/04 00:40:35;;;;;;;11.10;3.13;;;11.00;99.90;;;;;;4975344;28;20199;-79
2021/05/04 00:43:01;;;;;;;9.90;3.30;;;11.00;99.90;;;;;;5005675;28;20207;-78
2021/05/04 00:45:27;;;;;;;8.57;3.77;;;10.90;99.90;;;;;;4989303;28;20238;-79
2021/05/04 00:47:53;;;;;;;10.70;3.40;;;10.80;99.90;;;;;;4975795;28;20183;-78
2021/05/04 00:50:18;;;;;;;7.27;3.57;;;10.80;99.90;;;;;;4975763;28;20191;-78
2021/05/04 00:52:45;;;;;;;9.87;3.63;;;10.80;99.90;;;;;;4973748;28;20324;-78
2021/05/04 00:55:11;;;;;;;7.80;3.60;;;10.80;99.90;;;;;;4989844;28;20188;-78
2021/05/04 00:57:38;;;;;;;6.77;3.50;;;10.80;99.90;;;;;;4974233;28;20183;-77
2021/05/04 01:00:05;;;;;;;13.23;3.80;;;10.80;99.90;;;;;;5006246;28;20666;-77
2021/05/04 01:02:32;;;;;;;11.03;4.10;;;10.70;99.90;;;;;;5003910;28;20354;-78
2021/05/04 01:04:59;;;;;;;8.07;4.33;;;10.70;99.90;;;;;;4975410;28;20190;-77
2021/05/04 01:07:28;;;;;;;12.53;5.40;;;10.60;99.90;;;;;;4974247;28;20252;-77
2021/05/04 01:09:55;;;;;;;13.40;5.57;;;10.50;99.90;;;;;;4973764;28;20179;-77
2021/05/04 01:12:21;;;;;;;13.13;6.00;;;10.40;99.90;;;;;;4976150;28;20201;-77
2021/05/04 01:14:47;;;;;;;13.70;7.33;;;10.30;99.90;;;;;;4974454;28;20190;-78
2021/05/04 01:17:13;;;;;;;15.87;7.80;;;10.10;99.90;;;;;;4974742;28;20191;-77
2021/05/04 01:19:39;;;;;;;13.70;6.13;;;10.10;99.90;;;;;;4972699;28;20554;-78
2021/05/04 01:22:04;;;;;;;12.47;5.57;;;10.10;99.90;;;;;;4973215;28;20213;-77
2021/05/04 01:24:30;;;;;;;15.93;5.17;;;10.10;99.90;;;;;;4974312;28;20238;-79
2021/05/04 01:26:58;;;;;;;9.60;4.60;;;10.10;99.90;;;;;;4973131;28;20179;-78
2021/05/04 01:29:25;;;;;;;11.27;4.40;;;10.10;99.90;;;;;;5005768;28;20235;-78
2021/05/04 01:31:51;;;;;;;12.97;6.00;;;10.20;99.90;;;;;;4973762;28;20554;-79
2021/05/04 01:34:17;;;;;;;12.37;5.50;;;10.20;99.90;;;;;;4973906;28;20191;-78
2021/05/04 01:36:43;;;;;;;8.13;4.10;;;10.20;99.90;;;;;;4972811;28;20663;-78
2021/05/04 01:39:10;;;;;;;8.60;4.00;;;10.10;99.90;;;;;;5004475;28;20187;-78
2021/05/04 01:41:36;;;;;;;9.23;3.50;;;10.00;99.90;;;;;;4975634;28;20195;-78
2021/05/04 01:44:04;;;;;;;8.33;3.70;;;9.90;99.90;;;;;;5003040;28;20219;-79
2021/05/04 01:46:32;;;;;;;5.17;2.90;;;10.00;99.90;;;;;;4988817;28;20824;-79
2021/05/04 01:49:03;;;;;;;7.47;3.40;;;9.90;99.90;;;;;;4975385;28;20242;-78
2021/05/04 01:51:29;;;;;;;8.63;3.20;;;10.00;99.90;;;;;;4974035;28;20219;-78
2021/05/04 01:53:56;;;;;;;7.63;3.03;;;10.10;99.90;;;;;;4974353;28;20195;-77
2021/05/04 01:56:22;;;;;;;9.03;3.60;;;10.00;99.90;;;;;;4972999;28;20257;-77
2021/05/04 01:58:48;;;;;;;8.83;3.13;;;10.00;99.90;;;;;;4973986;28;20191;-78
2021/05/04 02:01:14;;;;;;;7.33;2.77;;;10.10;99.90;;;;;;4972800;28;20202;-78
2021/05/04 02:03:40;;;;;;;6.57;2.80;;;10.00;99.90;;;;;;4972545;28;20207;-78
2021/05/04 02:06:05;;;;;;;8.33;2.90;;;10.10;99.90;;;;;;4988153;28;20200;-78
2021/05/04 02:08:31;;;;;;;7.33;3.00;;;10.10;99.90;;;;;;4974102;28;20187;-78
2021/05/04 02:10:57;;;;;;;9.20;3.00;;;10.10;99.90;;;;;;4974941;28;20252;-79
2021/05/04 02:13:23;;;;;;;6.27;3.00;;;10.10;99.90;;;;;;5003889;28;20651;-78
2021/05/04 02:15:50;;;;;;;6.20;2.80;;;10.10;99.90;;;;;;4973222;28;20183;-78
2021/05/04 02:18:16;;;;;;;9.57;3.07;;;10.20;99.90;;;;;;4974527;28;20261;-78
2021/05/04 02:20:41;;;;;;;8.23;2.60;;;10.20;99.90;;;;;;4989657;28;20244;-78
2021/05/04 02:23:07;;;;;;;6.67;2.60;;;10.20;99.90;;;;;;4989200;28;20207;-78
2021/05/04 02:25:33;;;;;;;10.30;2.77;;;10.20;99.90;;;;;;4973586;28;20187;-78
2021/05/04 02:27:58;;;;;;;9.53;2.80;;;10.10;99.90;;;;;;4973967;28;20179;-78
2021/05/04 02:30:24;;;;;;;7.73;2.80;;;10.20;99.90;;;;;;4974068;28;20198;-78
2021/05/04 02:32:50;;;;;;;5.90;3.07;;;10.30;99.90;;;;;;4987800;28;20183;-78
2021/05/04 02:35:15;;;;;;;5.87;2.47;;;10.40;99.90;;;;;;4974040;28;20647;-78
2021/05/04 02:37:41;;;;;;;5.07;2.63;;;10.40;99.90;;;;;;4972272;28;20642;-79
2021/05/04 02:40:07;;;;;;;6.20;2.30;;;10.40;99.90;;;;;;4988549;28;20281;-78
2021/05/04 02:42:33;;;;;;;5.87;2.30;;;10.40;99.90;;;;;;4971501;28;20243;-78
2021/05/04 02:44:59;;;;;;;6.33;2.60;;;10.40;99.90;;;;;;4971847;28;20199;-78
2021/05/04 02:47:24;;;;;;;5.93;2.40;;;10.50;99.90;;;;;;4974231;28;20693;-78
2021/05/04 02:49:50;;;;;;;6.43;2.50;;;10.40;99.90;;;;;;5002754;28;20183;-78
2021/05/04 02:52:16;;;;;;;8.07;2.30;;;10.50;99.90;;;;;;4973575;28;20179;-78
2021/05/04 02:54:42;;;;;;;8.73;2.90;;;10.60;99.90;;;;;;4972596;28;20248;-78
2021/05/04 02:57:07;;;;;;;6.87;2.53;;;10.60;99.90;;;;;;4973164;28;20201;-78
2021/05/04 02:59:33;;;;;;;6.80;2.53;;;10.60;99.90;;;;;;4973654;28;20196;-78
2021/05/04 03:02:00;;;;;;;6.23;2.40;;;10.60;99.90;;;;;;4973148;28;20275;-78
2021/05/04 03:04:26;;;;;;;6.70;2.93;;;10.70;99.90;;;;;;4973696;28;20196;-78
2021/05/04 03:06:52;;;;;;;6.37;3.20;;;10.70;99.90;;;;;;4988235;28;20191;-78
2021/05/04 03:09:17;;;;;;;6.77;3.00;;;10.80;99.90;;;;;;4987392;28;20215;-79
2021/05/04 03:11:43;;;;;;;11.30;3.17;;;10.80;99.90;;;;;;4973620;28;20266;-78
2021/05/04 03:14:09;;;;;;;8.20;3.10;;;10.80;99.90;;;;;;4986792;28;20192;-79
2021/05/04 03:16:34;;;;;;;6.73;2.87;;;10.80;99.90;;;;;;4973285;28;20179;-78
2021/05/04 03:19:00;;;;;;;7.63;2.57;;;10.90;99.90;;;;;;4973101;28;20180;-78
2021/05/04 03:21:27;;;;;;;10.40;2.80;;;11.00;99.90;;;;;;4973066;28;20261;-78
2021/05/04 03:23:53;;;;;;;5.23;2.33;;;11.00;99.90;;;;;;4973143;28;20257;-78
2021/05/04 03:26:19;;;;;;;6.80;2.40;;;11.00;99.90;;;;;;4973687;28;20651;-78
2021/05/04 03:28:44;;;;;;;5.30;1.77;;;11.00;99.90;;;;;;4974768;28;20199;-78
2021/05/04 03:31:10;;;;;;;7.83;2.30;;;11.10;99.90;;;;;;5004197;28;20671;-78
2021/05/04 03:33:35;;;;;;;7.63;3.10;;;11.00;99.90;;;;;;4971241;28;20235;-78
2021/05/04 03:36:01;;;;;;;5.80;2.20;;;11.00;99.90;;;;;;4971729;28;20242;-79
2021/05/04 03:38:27;;;;;;;5.27;1.80;;;11.00;99.90;;;;;;5003168;28;20196;-78
2021/05/04 03:40:53;;;;;;;7.27;1.90;;;11.00;99.90;;;;;;4988068;28;20188;-79
2021/05/04 03:43:19;;;;;;;6.83;2.40;;;11.10;99.90;;;;;;4972174;28;20703;-78
2021/05/04 03:45:44;;;;;;;4.07;1.50;;;11.10;99.90;;;;;;4972831;28;20300;-78
2021/05/04 03:48:10;;;;;;;3.43;1.57;;;11.10;99.90;;;;;;4987931;28;20750;-79
2021/05/04 03:50:36;;;;;;;5.17;1.80;;;11.10;99.90;;;;;;4971165;28;20271;-77
2021/05/04 03:53:02;;;;;;;6.77;1.43;;;11.00;99.90;;;;;;4972326;28;20210;-78
2021/05/04 03:55:28;;;;;;;6.40;1.70;;;11.10;99.90;;;;;;4972519;28;20198;-78
2021/05/04 03:57:54;;;;;;;6.13;1.63;;;11.10;99.90;;;;;;4987277;28;20199;-78
2021/05/04 04:00:20;;;;;;;6.87;1.83;;;11.10;99.90;;;;;;4974671;28;20675;-78
2021/05/04 04:02:46;;;;;;;4.60;1.70;;;11.20;99.90;;;;;;4972046;28;20243;-78
2021/05/04 04:05:12;;;;;;;7.90;1.47;;;11.20;99.90;;;;;;4987370;28;20658;-79
2021/05/04 04:07:38;;;;;;;6.17;1.77;;;11.30;99.90;;;;;;4970684;28;20183;-78
2021/05/04 04:10:06;;;;;;;5.97;1.47;;;11.20;99.90;;;;;;4971457;28;20292;-78
2021/05/04 04:12:31;;;;;;;4.63;1.37;;;11.20;99.90;;;;;;4972906;28;20200;-78
2021/05/04 04:14:57;;;;;;;3.07;1.43;;;11.10;99.90;;;;;;4972348;28;20202;-78
2021/05/04 04:17:23;;;;;;;6.63;1.50;;;11.10;99.90;;;;;;4971697;28;20223;-78
2021/05/04 04:19:49;;;;;;;4.20;1.40;;;11.20;99.90;;;;;;4985572;28;20557;-78
2021/05/04 04:22:15;;;;;;;6.27;1.10;;;11.30;99.90;;;;;;4971793;28;20183;-78
2021/05/04 04:24:42;;;;;;;4.83;1.10;;;11.30;99.90;;;;;;4972482;28;20191;-78
2021/05/04 04:27:08;;;;;;;5.70;1.60;;;11.40;99.90;;;;;;4986011;28;20235;-78
2021/05/04 04:29:34;;;;;;;4.97;1.27;;;11.40;99.90;;;;;;5003761;28;20207;-78
2021/05/04 04:32:03;;;;;;;1.37;0.83;;;11.60;99.90;;;;;;4986677;28;20207;-78
2021/05/04 04:34:29;;;;;;;4.47;1.60;;;11.60;99.90;;;;;;4972108;28;20224;-78
2021/05/04 04:36:55;;;;;;;5.67;1.63;;;11.60;99.90;;;;;;4973627;28;20185;-78
2021/05/04 04:39:21;;;;;;;4.37;1.20;;;11.60;99.90;;;;;;4986918;28;20284;-79
2021/05/04 04:41:47;;;;;;;13.87;1.67;;;11.70;99.90;;;;;;4987634;28;20535;-78
2021/05/04 04:44:13;;;;;;;6.03;1.40;;;11.60;99.90;;;;;;4973070;28;20289;-78
2021/05/04 04:46:42;;;;;;;6.30;1.20;;;11.60;99.90;;;;;;4972807;28;20655;-79
2021/05/04 04:49:13;;;;;;;6.33;1.40;;;11.70;99.90;;;;;;4972059;28;20188;-79
2021/05/04 04:51:39;;;;;;;8.30;1.37;;;11.70;99.90;;;;;;5001371;28;20269;-78
2021/05/04 04:54:06;;;;;;;4.47;1.50;;;11.60;99.90;;;;;;5003803;28;20596;-78
2021/05/04 04:56:33;;;;;;;4.27;1.30;;;11.60;99.90;;;;;;4971676;28;20197;-78
2021/05/04 04:58:59;;;;;;;3.83;1.40;;;11.40;99.90;;;;;;4972271;28;20220;-79
2021/05/04 05:01:24;;;;;;;5.77;1.50;;;11.30;99.90;;;;;;4976689;28;20220;-78
2021/05/04 05:03:50;;;;;;;6.37;1.90;;;11.30;99.90;;;;;;4972615;28;20745;-79
2021/05/04 05:06:16;;;;;;;5.07;1.67;;;11.20;99.90;;;;;;4976005;28;20179;-79
2021/05/04 05:08:42;;;;;;;4.43;1.60;;;11.00;99.90;;;;;;4975443;28;20179;-78
2021/05/04 05:11:07;;;;;;;7.37;2.03;;;11.00;99.90;;;;;;4975938;28;20177;-78
2021/05/04 05:13:33;;;;;;;8.73;1.80;;;11.00;99.90;;;;;;4974614;28;20247;-82
2021/05/04 05:15:59;;;;;;;4.57;1.97;;;10.90;99.90;;;;;;4972746;28;20188;-76
2021/05/04 05:18:25;;;;;;;4.33;2.00;;;10.80;99.90;;;;;;4975114;28;20278;-76
2021/05/04 05:20:50;;;;;;;8.13;2.00;;;10.70;99.90;;;;;;4974889;28;20247;-77
2021/05/04 05:23:18;;;;;;;6.10;2.23;;;10.70;99.90;;;;;;4974864;28;20196;-76
2021/05/04 05:25:44;;;;;;;4.60;1.97;;;10.70;99.90;;;;;;5003870;28;20556;-77
2021/05/04 05:28:10;;;;;;;6.33;2.40;;;10.60;99.90;;;;;;5006392;28;20638;-77
2021/05/04 05:30:35;;;;;;;6.60;2.23;;;10.60;99.90;;;;;;4975454;28;20204;-76
2021/05/04 05:33:01;;;;;;;4.97;2.50;;;10.50;99.90;;;;;;4970107;28;20238;-77
2021/05/04 05:35:27;;;;;;;7.53;2.63;;;10.40;99.90;;;;;;4973498;28;20279;-77
2021/05/04 05:37:53;;;;;;;8.53;2.77;;;10.30;99.90;;;;;;4973426;28;20191;-77
2021/05/04 05:40:19;;;;;;;4.97;2.30;;;10.30;99.90;;;;;;5007194;28;20233;-77
2021/05/04 05:42:45;;;;;;;4.17;2.20;;;10.30;99.90;;;;;;4974676;28;20214;-77
2021/05/04 05:45:11;;;;;;;5.53;2.70;;;10.20;99.90;;;;;;4975828;28;20191;-77
2021/05/04 05:47:37;;;;;;;5.00;2.80;;;10.20;99.90;;;;;;4976018;28;20200;-77
2021/05/04 05:50:04;;;;;;;6.70;2.90;;;10.20;99.90;;;;;;4974189;28;20212;-77
2021/05/04 05:52:30;;;;;;;8.93;2.60;;;10.30;99.90;;;;;;5006437;28;20207;-79
2021/05/04 05:54:55;;;;;;;7.80;2.50;;;10.40;99.90;;;;;;4989293;28;20187;-79
2021/05/04 05:57:21;;;;;;;9.97;2.60;;;10.40;99.90;;;;;;4990585;28;20299;-79
2021/05/04 05:59:47;;;;;;;13.57;2.70;;;10.50;99.90;;;;;;4974823;28;20223;-79
2021/05/04 06:02:12;;;;;;;6.03;2.10;;;10.50;99.90;;;;;;4974254;28;20270;-79
2021/05/04 06:04:38;;;;;;;12.17;2.53;;;10.60;99.90;;;;;;4976417;28;20612;-79
2021/05/04 06:07:04;;;;;;;8.63;2.50;;;10.70;99.90;;;;;;4974219;28;20658;-79
2021/05/04 06:09:30;;;;;;;10.03;2.10;;;10.80;99.90;;;;;;4974312;28;20180;-79
2021/05/04 06:11:55;;;;;;;10.73;2.63;;;10.80;99.90;;;;;;4988805;28;20183;-79
2021/05/04 06:14:21;;;;;;;10.47;2.17;;;10.90;99.90;;;;;;5005273;28;20569;-79
2021/05/04 06:16:47;;;;;;;8.83;2.17;;;11.00;99.90;;;;;;5005924;28;20625;-79
2021/05/04 06:19:12;;;;;;;10.80;1.90;;;11.10;99.90;;;;;;4972282;28;20191;-79
2021/05/04 06:21:38;;;;;;;11.97;2.17;;;11.30;99.90;;;;;;4988459;28;20183;-79
2021/05/04 06:24:05;;;;;;;7.67;1.87;;;11.30;99.90;;;;;;4989815;28;20282;-79
2021/05/04 06:26:30;;;;;;;13.63;2.20;;;11.30;99.90;;;;;;5004124;28;20530;-79
2021/05/04 06:28:56;;;;;;;14.43;2.63;;;11.40;99.90;;;;;;4973588;28;20188;-79
2021/05/04 06:31:22;;;;;;;14.23;2.17;;;11.50;99.90;;;;;;4973172;28;20542;-79
2021/05/04 06:33:48;;;;;;;13.03;2.00;;;11.60;99.90;;;;;;5005724;28;20630;-79
2021/05/04 06:36:14;;;;;;;13.17;2.53;;;11.60;99.90;;;;;;4987920;28;20241;-79
2021/05/04 06:38:41;;;;;;;12.37;2.30;;;11.60;99.90;;;;;;5005294;28;20209;-79
2021/05/04 06:41:07;;;;;;;10.90;2.50;;;11.70;99.90;;;;;;5004965;28;20200;-79
2021/05/04 06:43:33;;;;;;;17.70;3.10;;;11.80;99.90;;;;;;4972742;28;20215;-77
2021/05/04 06:45:59;;;;;;;13.37;2.73;;;12.00;99.90;;;;;;5005169;28;20214;-78
2021/05/04 06:48:25;;;;;;;15.53;2.53;;;12.10;99.90;;;;;;4972350;28;20176;-79
2021/05/04 06:50:52;;;;;;;13.63;2.30;;;12.20;99.90;;;;;;5004041;28;20572;-79
2021/05/04 06:53:17;;;;;;;9.90;2.17;;;12.20;99.90;;;;;;5003919;28;20612;-79
2021/05/04 06:55:43;;;;;;;10.80;2.20;;;12.30;99.90;;;;;;4968700;28;20247;-79
2021/05/04 06:58:18;;;;;;;12.87;2.30;;;12.40;99.90;;;;;;4989020;28;20558;-78
2021/05/04 07:00:44;;;;;;;17.83;2.60;;;12.30;99.90;;;;;;5002861;28;20195;-80
2021/05/04 07:03:09;;;;;;;11.40;2.27;;;12.40;99.90;;;;;;5004429;28;20216;-81
2021/05/04 07:05:35;;;;;;;12.97;2.20;;;12.40;99.90;;;;;;4988314;28;20193;-83
2021/05/04 07:08:01;;;;;;;10.80;1.90;;;12.40;99.90;;;;;;4968930;28;20207;-80
2021/05/04 07:10:27;;;;;;;9.90;1.73;;;12.50;99.90;;;;;;5003688;28;20184;-80
2021/05/04 07:12:53;;;;;;;13.43;2.37;;;12.40;99.90;;;;;;4972093;28;20224;-80
2021/05/04 07:15:19;;;;;;;16.80;2.47;;;12.50;99.90;;;;;;5004504;28;20180;-80
2021/05/04 07:17:44;;;;;;;13.07;2.37;;;12.50;99.90;;;;;;4987654;28;20296;-79
2021/05/04 07:20:11;;;;;;;11.27;2.30;;;12.40;99.90;;;;;;4971709;28;20199;-80
2021/05/04 07:22:37;;;;;;;15.47;2.67;;;12.30;99.90;;;;;;4988071;28;20220;-80
2021/05/04 07:25:04;;;;;;;19.47;2.93;;;12.40;99.90;;;;;;4970678;28;20194;-79
2021/05/04 07:27:30;;;;;;;21.57;3.50;;;12.40;99.90;;;;;;4972456;28;20220;-80
2021/05/04 07:29:55;;;;;;;22.83;3.43;;;12.40;99.90;;;;;;4988510;28;20192;-79
2021/05/04 07:32:21;;;;;;;16.67;2.47;;;12.40;99.90;;;;;;4973576;28;20182;-80
2021/05/04 07:34:48;;;;;;;19.17;3.13;;;12.70;99.90;;;;;;4971113;28;20725;-80
2021/05/04 07:37:14;;;;;;;20.17;3.07;;;12.90;99.90;;;;;;4989085;28;20275;-80
2021/05/04 07:39:41;;;;;;;17.87;2.80;;;13.30;99.90;;;;;;4988095;28;20190;-80
2021/05/04 07:42:07;;;;;;;16.47;2.50;;;13.80;99.90;;;;;;4975069;28;20202;-80
2021/05/04 07:44:33;;;;;;;17.57;2.83;;;13.80;99.90;;;;;;4972279;28;20638;-80
2021/05/04 07:46:59;;;;;;;14.73;2.33;;;13.80;99.90;;;;;;5001576;28;20248;-81
2021/05/04 07:49:36;;;;;;;12.60;2.27;;;13.60;99.90;;;;;;4987927;28;20831;-81
2021/05/04 07:52:02;;;;;;;15.83;2.73;;;13.40;99.90;;;;;;5003295;28;20190;-80
2021/05/04 07:54:28;;;;;;;16.77;2.43;;;13.30;99.90;;;;;;4987636;28;20605;-80
2021/05/04 07:56:54;;;;;;;13.87;2.40;;;13.20;99.90;;;;;;4972845;28;20338;-81
2021/05/04 07:59:19;;;;;;;13.60;2.43;;;13.00;99.90;;;;;;4971437;28;20201;-80
2021/05/04 08:01:45;;;;;;;15.73;2.57;;;13.00;99.90;;;;;;4973049;28;20194;-81
2021/05/04 08:04:12;;;;;;;14.30;2.60;;;13.10;99.90;;;;;;4971713;28;20577;-81
2021/05/04 08:06:38;;;;;;;14.63;2.60;;;13.20;99.90;;;;;;4973999;28;20310;-81
2021/05/04 08:09:05;;;;;;;16.00;2.60;;;13.30;99.90;;;;;;4970990;28;20253;-80
2021/05/04 08:11:31;;;;;;;13.70;2.23;;;13.30;99.90;;;;;;5003705;28;20680;-81
2021/05/04 08:13:57;;;;;;;13.23;2.27;;;13.50;99.90;;;;;;4988947;28;20190;-80
2021/05/04 08:16:23;;;;;;;20.60;2.80;;;13.50;99.90;;;;;;4986910;28;20230;-81
2021/05/04 08:18:51;;;;;;;14.60;2.63;;;13.40;99.90;;;;;;5003718;28;20211;-81
2021/05/04 08:21:20;;;;;;;15.53;3.03;;;13.20;99.90;;;;;;4987144;28;20222;-80
2021/05/04 08:23:46;;;;;;;20.07;2.83;;;13.20;99.90;;;;;;4987339;28;20199;-80
2021/05/04 08:26:12;;;;;;;19.20;2.50;;;14.00;99.90;;;;;;4972452;28;20194;-80
2021/05/04 08:28:38;;;;;;;19.27;2.67;;;13.70;99.90;;;;;;4986757;28;20223;-81
2021/05/04 08:31:03;;;;;;;17.60;2.97;;;13.60;99.90;;;;;;4981388;28;20298;-81
2021/05/04 08:33:29;;;;;;;17.27;2.90;;;13.50;99.90;;;;;;5000104;28;20692;-82
2021/05/04 08:35:55;;;;;;;19.80;3.30;;;13.50;99.90;;;;;;4973539;28;20235;-81
2021/05/04 08:38:21;;;;;;;18.23;2.53;;;13.40;99.90;;;;;;4975536;28;20199;-81
2021/05/04 08:40:47;;;;;;;20.20;3.03;;;13.60;99.90;;;;;;4976633;28;20193;-81
2021/05/04 08:43:12;;;;;;;22.33;3.67;;;13.60;99.90;;;;;;4979743;28;20284;-81
2021/05/04 08:45:42;;;;;;;20.90;3.10;;;13.30;99.90;;;;;;4989739;28;20184;-81
2021/05/04 08:48:08;;;;;;;18.83;3.30;;;13.20;99.90;;;;;;4975034;28;20186;-81
2021/05/04 08:50:36;;;;;;;20.80;2.93;;;12.90;99.90;;;;;;4989796;28;20252;-81
2021/05/04 08:53:02;;;;;;;19.37;2.80;;;12.70;99.90;;;;;;4974979;28;20204;-81
2021/05/04 08:55:28;;;;;;;19.80;3.43;;;14.10;99.90;;;;;;4975773;28;20195;-82
2021/05/04 08:57:54;;;;;;;21.20;2.97;;;15.70;99.90;;;;;;4990376;28;20195;-81
2021/05/04 09:00:20;;;;;;;17.17;2.57;;;16.10;99.90;;;;;;4991575;28;20655;-82
2021/05/04 09:02:59;;;;;;;16.27;2.60;;;16.30;99.90;;;;;;4990215;28;21523;-82
2021/05/04 09:05:39;;;;;;;18.50;2.13;;;17.10;99.90;;;;;;4976196;28;20188;-82
2021/05/04 09:08:11;;;;;;;19.23;2.20;;;16.00;99.90;;;;;;5004733;28;20190;-81
2021/05/04 09:10:45;;;;;;;16.30;2.40;;;16.30;99.90;;;;;;4991576;28;20574;-82
2021/05/04 09:13:29;;;;;;;11.70;1.67;;;16.50;99.90;;;;;;5005520;28;20260;-82
2021/05/04 09:21:14;;;;;;;12.40;1.90;;;15.60;99.90;;;;;;4990331;28;20183;-82
2021/05/04 09:23:42;;;;;;;15.23;2.33;;;16.40;99.90;;;;;;4974285;28;20222;-81
2021/05/04 09:26:29;;;;;;;8.70;1.63;;;16.50;99.90;;;;;;4990904;28;20591;-82
2021/05/04 09:28:56;;;;;;;9.67;1.53;;;16.20;99.90;;;;;;5006406;28;20188;-82
2021/05/04 09:31:29;;;;;;;14.60;1.70;;;15.60;99.90;;;;;;4972718;28;20210;-82
2021/05/04 09:34:06;;;;;;;13.13;1.80;;;15.10;99.90;;;;;;4972732;28;20274;-82
2021/05/04 09:36:47;;;;;;;14.33;2.17;;;14.90;99.90;;;;;;4971116;28;20209;-81
2021/05/04 09:39:28;;;;;;;13.27;1.70;;;14.70;99.90;;;;;;4992366;28;20234;-82
2021/05/04 09:41:55;;;;;;;12.17;1.90;;;14.70;99.90;;;;;;4969089;28;20189;-81
2021/05/04 09:44:41;;;;;;;14.20;2.23;;;14.40;99.90;;;;;;4976995;28;20219;-81
2021/05/04 09:47:09;;;;;;;9.10;1.47;;;14.40;99.90;;;;;;5005183;28;20183;-81
2021/05/04 09:49:36;;;;;;;15.70;2.37;;;14.30;99.90;;;;;;4974693;28;20186;-81
2021/05/04 09:52:15;;;;;;;10.17;1.47;;;14.40;99.90;;;;;;4990295;28;20186;-81
2021/05/04 09:54:41;;;;;;;12.37;1.87;;;14.60;99.90;;;;;;5005389;28;20278;-81
2021/05/04 09:57:29;;;;;;;16.17;2.57;;;14.40;99.90;;;;;;4975325;28;20314;-81
2021/05/04 09:59:55;;;;;;;9.13;1.57;;;14.70;99.90;;;;;;5002906;28;20195;-81
2021/05/04 10:02:22;;;;;;;14.50;1.80;;;14.90;99.90;;;;;;5005670;28;20530;-81
2021/05/04 10:04:51;;;;;;;11.53;1.77;;;15.10;99.90;;;;;;4960603;28;20205;-81
2021/05/04 10:07:17;;;;;;;13.83;2.20;;;14.80;99.90;;;;;;4974182;28;20179;-83
2021/05/04 10:09:43;;;;;;;16.47;1.77;;;14.40;99.90;;;;;;4973064;28;20182;-82
2021/05/04 10:12:12;;;;;;;17.57;1.90;;;14.20;99.90;;;;;;4972317;28;20281;-82
2021/05/04 10:14:40;;;;;;;12.87;1.73;;;14.00;99.90;;;;;;4972519;28;20194;-82
2021/05/04 10:17:08;;;;;;;10.37;1.63;;;14.40;99.90;;;;;;5003618;28;20654;-82
2021/05/04 10:19:36;;;;;;;13.87;2.10;;;14.50;99.90;;;;;;4990147;28;20247;-82
2021/05/04 10:22:04;;;;;;;11.50;2.00;;;14.80;99.90;;;;;;4989378;28;20211;-82
2021/05/04 10:24:33;;;;;;;13.20;1.90;;;15.00;99.90;;;;;;4987483;28;20666;-82
2021/05/04 10:27:02;;;;;;;10.23;1.80;;;15.00;99.90;;;;;;4989863;28;20176;-82
2021/05/04 10:29:28;;;;;;;9.40;1.50;;;15.50;99.90;;;;;;5003225;28;20216;-82
2021/05/04 10:31:57;;;;;;;13.80;1.67;;;15.60;99.90;;;;;;4977015;28;20267;-82
2021/05/04 10:34:27;;;;;;;11.57;1.77;;;16.00;99.90;;;;;;5004060;28;20232;-82
2021/05/04 10:37:23;;;;;;;10.23;1.50;;;16.80;99.90;;;;;;4988365;28;20294;-82
2021/05/04 10:39:48;;;;;;;13.37;1.63;;;17.20;99.90;;;;;;4970741;28;20229;-82
2021/05/04 10:42:29;;;;;;;14.10;1.97;;;16.60;99.90;;;;;;5004005;28;20203;-82
2021/05/04 10:44:58;;;;;;;10.17;1.63;;;16.30;99.90;;;;;;4973672;28;20179;-82
2021/05/04 10:47:39;;;;;;;13.00;1.57;;;16.30;99.90;;;;;;4988215;28;20251;-82
2021/05/04 10:50:09;;;;;;;11.10;1.60;;;16.20;99.90;;;;;;4988119;28;20612;-81
2021/05/04 10:52:51;;;;;;;14.03;1.67;;;16.50;99.90;;;;;;5003398;28;20664;-81
2021/05/04 10:55:18;;;;;;;13.23;1.60;;;16.20;99.90;;;;;;5004291;28;20188;-81
2021/05/04 10:58:13;;;;;;;10.33;1.93;;;16.10;99.90;;;;;;4988724;28;20216;-81
2021/05/04 11:01:01;;;;;;;7.50;1.40;;;15.60;99.90;;;;;;4987909;28;20223;-81
2021/05/04 11:03:33;;;;;;;10.13;2.10;;;15.20;99.90;;;;;;5003249;28;20591;-81
2021/05/04 11:05:59;;;;;;;14.20;2.20;;;14.80;99.90;;;;;;5003813;28;20195;-82
2021/05/04 11:08:48;;;;;;;15.27;2.20;;;15.00;99.90;;;;;;5004540;28;20179;-81
2021/05/04 11:11:29;;;;;;;10.20;1.90;;;14.80;99.90;;;;;;4987245;28;21263;-81
2021/05/04 11:14:03;;;;;;;11.77;1.63;;;14.90;99.90;;;;;;4985812;28;20673;-81
2021/05/04 11:16:46;;;;;;;16.73;1.93;;;15.20;99.90;;;;;;5002848;28;20258;-81
2021/05/04 11:19:18;;;;;;;16.20;2.20;;;15.60;99.90;;;;;;4989719;28;20190;-81
2021/05/04 11:21:50;;;;;;;11.00;1.70;;;15.60;99.90;;;;;;4972384;28;20679;-80
2021/05/04 11:24:28;;;;;;;12.93;2.00;;;15.60;99.90;;;;;;5003472;28;20363;-82
2021/05/04 11:27:01;;;;;;;13.93;1.97;;;15.10;99.90;;;;;;4973613;28;20214;-80
2021/05/04 11:29:30;;;;;;;12.93;1.93;;;15.00;99.90;;;;;;4971575;28;20183;-80
2021/05/04 11:32:21;;;;;;;13.53;1.77;;;16.00;99.90;;;;;;4988402;28;20195;-80
2021/05/04 11:34:50;;;;;;;7.23;1.30;;;16.10;99.90;;;;;;5000849;28;20221;-80
2021/05/04 11:37:18;;;;;;;12.77;1.90;;;15.70;99.90;;;;;;4988335;28;20186;-80
2021/05/04 11:39:58;;;;;;;12.37;1.43;;;15.80;99.90;;;;;;5002879;28;20278;-83
2021/05/04 11:42:39;;;;;;;10.20;1.60;;;15.60;99.90;;;;;;4988486;28;20175;-81
2021/05/04 11:45:25;;;;;;;10.63;1.73;;;15.60;99.90;;;;;;4984361;28;20250;-81
2021/05/04 11:47:53;;;;;;;13.03;1.67;;;15.40;99.90;;;;;;4971176;28;20183;-80
2021/05/04 11:50:24;;;;;;;14.13;1.70;;;15.20;99.90;;;;;;4972715;28;20210;-81
2021/05/04 11:52:52;;;;;;;10.70;1.60;;;15.10;99.90;;;;;;5002115;28;20604;-80
2021/05/04 11:55:28;;;;;;;15.60;2.37;;;15.00;99.90;;;;;;4987046;28;20175;-81
2021/05/04 11:58:02;;;;;;;13.43;1.67;;;15.00;99.90;;;;;;4986423;28;20187;-82
2021/05/04 12:00:30;;;;;;;11.10;1.30;;;15.40;99.90;;;;;;5003173;28;20549;-82
2021/05/04 12:02:56;;;;;;;11.77;1.33;;;15.90;99.90;;;;;;5002112;28;20288;-82
2021/05/04 12:05:25;;;;;;;9.80;1.30;;;16.20;99.50;;;;;;4971995;28;20276;-81
2021/05/04 12:07:51;;;;;;;8.47;1.60;;;16.00;99.40;;;;;;5004661;28;20210;-81
2021/05/04 12:10:17;;;;;;;12.20;1.50;;;16.50;98.70;;;;;;4970367;28;20239;-81
2021/05/04 12:12:51;;;;;;;8.23;1.83;;;16.20;98.50;;;;;;5003788;28;20192;-81
2021/05/04 12:15:40;;;;;;;9.63;1.27;;;15.90;99.20;;;;;;4970142;28;20706;-82
2021/05/04 12:18:15;;;;;;;11.00;1.47;;;16.10;99.90;;;;;;4972337;28;20208;-81
2021/05/04 12:20:46;;;;;;;9.80;1.40;;;15.90;99.50;;;;;;5003172;28;20197;-80
2021/05/04 12:23:23;;;;;;;7.57;1.50;;;15.50;99.90;;;;;;4969931;28;20272;-80
2021/05/04 12:26:17;;;;;;;11.50;1.57;;;15.40;99.90;;;;;;4971152;28;20669;-81
2021/05/04 12:28:52;;;;;;;10.40;1.60;;;15.40;99.90;;;;;;4971687;28;20195;-80
2021/05/04 12:31:22;;;;;;;14.20;1.93;;;15.30;99.90;;;;;;4987003;28;20179;-80
2021/05/04 12:33:52;;;;;;;12.10;1.50;;;15.40;99.90;;;;;;4973256;28;20188;-80
2021/05/04 12:36:45;;;;;;;11.33;1.80;;;15.10;99.90;;;;;;5003182;28;20701;-80
2021/05/04 12:39:23;;;;;;;13.17;1.70;;;15.10;99.90;;;;;;4972045;28;20698;-80
2021/05/04 12:41:50;;;;;;;14.27;1.40;;;15.40;99.90;;;;;;4973205;28;20187;-80
2021/05/04 12:46:46;;;;;;;13.80;1.97;;;16.40;99.90;;;;;;4972172;28;20678;-81
2021/05/04 12:49:12;;;;;;;15.23;2.03;;;16.00;99.30;;;;;;4971656;28;20603;-81
2021/05/04 12:51:48;;;;;;;13.87;2.10;;;15.60;99.90;;;;;;4988545;28;20195;-81
2021/05/04 12:54:18;;;;;;;12.73;1.57;;;15.70;99.90;;;;;;4983945;28;20189;-81